Smokerun, Pennsylvania
Current Conditions -  °F | °C
As of 1:54 AM on Wednesday 22 Oct 2014 (Local Time) from KFIG Reporting Station
Overcast Overcast  
Wind Chill: 49°   Ceiling: 1600
Heat Index: 49°   Visibility: 10mi
Dew Point: 46°   Wind: 3mph
Humidity: 90%   Direction: 20°NNE
Pressure: 29.98"   Gusts: NA
Location:  40.8°N, 78.43°W
Report Text: KFIG 220554Z AUTO 02003KT 10SM BKN016 OVC024 09/08 A2998 RMK AO2 SLP156 60000 T00940078 10100 20089 55000
Loading
Personal Weather Stations






























Interactive Weather Map
Tropical Storm Tracking
New forecast layout! Learn more

10-Day Weather Forecast

Advertisements
Track Severe Weather on mobile